createdAt,value
2022-08-21T00:01:58.430Z,45.77
2022-08-21T00:07:08.043Z,45.66
2022-08-21T00:09:35.751Z,45.67
2022-08-21T00:12:09.043Z,45.73
2022-08-21T00:14:41.669Z,45.81
2022-08-21T00:17:09.069Z,45.73
2022-08-21T00:19:39.008Z,45.83
2022-08-21T00:22:07.148Z,45.81
2022-08-21T00:27:16.747Z,45.80
2022-08-21T00:29:44.991Z,45.83
2022-08-21T00:32:31.625Z,46.03
2022-08-21T00:35:00.298Z,45.95
2022-08-21T00:38:59.178Z,46.33
2022-08-21T00:41:38.948Z,46.30
2022-08-21T00:46:52.023Z,46.39
2022-08-21T00:52:03.247Z,46.39
2022-08-21T01:08:56.536Z,47.33
2022-08-21T01:11:28.032Z,47.45
2022-08-21T01:13:55.920Z,47.54
2022-08-21T01:16:24.177Z,47.58
2022-08-21T01:18:53.162Z,47.83
2022-08-21T01:21:27.863Z,47.66
2022-08-21T01:24:02.602Z,48.03
2022-08-21T01:26:34.631Z,47.92
2022-08-21T01:29:19.101Z,48.26
2022-08-21T01:36:18.701Z,48.69
2022-08-21T01:38:48.182Z,48.36
2022-08-21T01:41:18.555Z,48.34
2022-08-21T01:43:50.635Z,48.48
2022-08-21T01:46:27.444Z,48.64
2022-08-21T01:48:59.048Z,48.80
2022-08-21T01:54:08.390Z,49.16
2022-08-21T01:59:25.416Z,49.33
2022-08-21T02:01:57.159Z,49.44
2022-08-21T02:04:38.119Z,49.43
2022-08-21T02:07:08.437Z,49.81
2022-08-21T02:09:43.354Z,49.54
2022-08-21T02:12:12.251Z,49.71
2022-08-21T02:18:08.139Z,49.82
2022-08-21T02:20:42.800Z,49.82
2022-08-21T02:23:14.124Z,49.66
2022-08-21T02:25:51.796Z,49.90
2022-08-21T02:28:19.807Z,49.68
2022-08-21T02:30:48.933Z,49.97
2022-08-21T02:33:17.204Z,49.98
2022-08-21T02:38:34.761Z,50.27
2022-08-21T02:41:06.626Z,50.25
2022-08-21T02:44:39.074Z,50.43
2022-08-21T02:47:08.243Z,50.48
2022-08-21T02:49:38.028Z,50.44
2022-08-21T02:52:07.367Z,50.64
2022-08-21T02:54:37.977Z,50.62
2022-08-21T02:57:05.263Z,50.80
2022-08-21T02:59:33.389Z,50.83
2022-08-21T03:02:02.425Z,50.54
2022-08-21T03:04:41.372Z,50.54
2022-08-21T03:14:56.077Z,50.94
2022-08-21T03:23:38.765Z,50.60
2022-08-21T03:26:06.463Z,50.50
2022-08-21T03:28:37.924Z,50.44
2022-08-21T03:31:11.069Z,49.97
2022-08-21T03:33:38.959Z,50.10
2022-08-21T03:36:13.420Z,50.17
2022-08-21T03:38:43.471Z,50.02
2022-08-21T03:56:57.943Z,49.44
2022-08-21T03:59:34.846Z,49.33
2022-08-21T04:02:08.919Z,49.52
2022-08-21T04:07:22.462Z,49.09
2022-08-21T04:09:50.589Z,49.32
2022-08-21T04:12:20.663Z,49.34
2022-08-21T04:17:33.047Z,49.18
2022-08-21T04:20:04.910Z,49.21
2022-08-21T04:22:32.643Z,49.07
2022-08-21T04:25:00.452Z,49.00
2022-08-21T04:27:32.025Z,49.19
2022-08-21T04:35:38.804Z,49.08
2022-08-21T04:40:50.595Z,49.11
2022-08-21T04:43:19.609Z,49.08
2022-08-21T04:45:52.203Z,49.08
2022-08-21T04:48:22.251Z,49.08
2022-08-21T04:51:08.502Z,48.77
2022-08-21T04:54:06.874Z,48.86
2022-08-21T04:56:47.710Z,48.49
2022-08-21T05:02:16.867Z,48.56
2022-08-21T05:04:53.525Z,48.17
2022-08-21T05:21:23.194Z,46.68
2022-08-21T05:23:51.931Z,46.95
2022-08-21T05:26:19.859Z,46.87
2022-08-21T05:28:48.686Z,46.82
2022-08-21T05:31:16.925Z,46.29
2022-08-21T05:33:44.131Z,46.15
2022-08-21T05:41:39.356Z,45.86
2022-08-21T05:44:12.268Z,45.37
2022-08-21T05:46:40.119Z,45.66
2022-08-21T05:49:07.629Z,45.59
2022-08-21T05:51:35.246Z,45.28
2022-08-21T05:54:06.370Z,45.45
2022-08-21T05:56:37.802Z,45.34
2022-08-21T05:59:08.581Z,44.86
2022-08-21T06:01:38.153Z,44.91
2022-08-21T06:04:15.290Z,44.82
2022-08-21T06:06:42.623Z,44.20
2022-08-21T06:11:52.622Z,44.29
2022-08-21T06:14:26.303Z,43.66
2022-08-21T06:16:55.767Z,43.45
2022-08-21T06:19:26.824Z,43.11
2022-08-21T06:21:58.245Z,42.79
2022-08-21T06:27:10.987Z,41.70
2022-08-21T06:29:44.226Z,41.54
2022-08-21T06:35:02.964Z,41.42
2022-08-21T06:37:32.436Z,40.09
2022-08-21T06:40:00.780Z,39.64
2022-08-21T06:42:31.500Z,39.69
2022-08-21T06:47:41.590Z,39.18
2022-08-21T06:50:15.996Z,39.33
2022-08-21T06:52:45.597Z,39.54
2022-08-21T06:55:22.303Z,39.57
2022-08-21T06:57:54.614Z,39.42
2022-08-21T07:03:05.632Z,39.10
2022-08-21T07:05:36.441Z,38.57
2022-08-21T07:08:05.252Z,38.92
2022-08-21T07:13:16.309Z,38.10
2022-08-21T07:16:00.281Z,38.13
2022-08-21T07:18:33.134Z,37.71
2022-08-21T07:23:53.794Z,37.89
2022-08-21T08:13:27.301Z,34.73
2022-08-21T08:24:18.839Z,31.89
2022-08-21T14:49:08.852Z,27.33
2022-08-21T20:19:36.888Z,36.27
2022-08-21T20:24:53.575Z,36.86
2022-08-21T20:27:27.483Z,36.63
2022-08-21T20:29:57.224Z,36.87
2022-08-21T20:32:27.666Z,36.85
2022-08-21T20:34:55.775Z,36.98
2022-08-21T20:51:45.406Z,37.70
2022-08-21T20:54:41.756Z,37.73
2022-08-21T20:57:20.751Z,37.79
2022-08-21T21:00:02.149Z,37.91
2022-08-21T21:03:06.713Z,38.01
2022-08-21T21:06:03.255Z,38.21
2022-08-21T21:08:55.196Z,38.20
2022-08-21T21:11:40.584Z,38.49
2022-08-21T21:14:28.114Z,38.32
2022-08-21T21:19:54.134Z,38.53
2022-08-21T21:22:29.781Z,38.91
2022-08-21T21:48:26.950Z,39.80
2022-08-21T21:51:27.248Z,39.86
2022-08-21T21:54:20.905Z,39.86
2022-08-21T21:57:34.615Z,40.08
2022-08-21T22:03:22.478Z,40.37
2022-08-21T22:06:10.229Z,40.05
2022-08-21T22:09:10.364Z,40.10
2022-08-21T22:12:24.507Z,40.39
2022-08-21T22:14:54.572Z,40.47
2022-08-21T22:17:51.341Z,40.51
2022-08-21T22:23:22.471Z,40.82
2022-08-21T22:28:42.319Z,40.29
2022-08-21T22:34:21.670Z,40.78
2022-08-21T22:37:03.154Z,40.95
2022-08-21T22:39:38.751Z,41.00
2022-08-21T22:45:15.838Z,40.98
2022-08-21T22:47:50.623Z,41.03
2022-08-21T22:53:10.695Z,41.20
2022-08-21T22:55:50.319Z,41.50
2022-08-21T22:58:19.281Z,41.17
2022-08-21T23:00:55.896Z,41.20
2022-08-21T23:03:43.343Z,41.29
2022-08-21T23:06:33.155Z,41.22
2022-08-21T23:09:04.352Z,40.95
2022-08-21T23:14:25.467Z,41.17
2022-08-21T23:17:12.456Z,41.11
2022-08-21T23:20:05.057Z,40.96
2022-08-21T23:25:51.581Z,41.41
2022-08-21T23:32:22.949Z,41.49
2022-08-21T23:35:21.765Z,41.62
2022-08-21T23:38:09.373Z,41.79
2022-08-21T23:40:53.453Z,41.54
2022-08-21T23:43:38.053Z,41.53
2022-08-21T23:46:34.040Z,41.92
2022-08-21T23:49:22.071Z,41.95
2022-08-21T23:52:20.919Z,41.99
2022-08-21T23:55:20.589Z,42.38
2022-08-21T23:58:00.630Z,42.44
